createdAt,value
2018-07-20T00:01:57.137Z,2.17
2018-07-20T00:04:25.935Z,2.30
2018-07-20T00:06:55.726Z,2.57
2018-07-20T00:09:24.468Z,2.13
2018-07-20T00:11:53.311Z,2.10
2018-07-20T00:14:22.097Z,2.10
2018-07-20T00:16:50.984Z,2.83
2018-07-20T00:19:19.819Z,2.10
2018-07-20T00:21:48.677Z,2.17
2018-07-20T00:24:17.708Z,1.77
2018-07-20T00:26:46.499Z,2.10
2018-07-20T00:29:15.264Z,1.90
2018-07-20T00:31:44.172Z,2.40
2018-07-20T00:34:12.907Z,2.13
2018-07-20T00:36:41.695Z,1.80
2018-07-20T00:39:11.206Z,2.07
2018-07-20T00:41:40.247Z,2.30
2018-07-20T00:44:09.170Z,2.30
2018-07-20T00:46:37.998Z,2.23
2018-07-20T00:49:06.792Z,2.53
2018-07-20T00:51:35.565Z,2.50
2018-07-20T00:54:04.544Z,2.33
2018-07-20T00:56:33.195Z,2.57
2018-07-20T00:59:02.016Z,2.90
2018-07-20T01:01:30.807Z,2.20
2018-07-20T01:03:59.617Z,2.30
2018-07-20T01:06:28.384Z,2.20
2018-07-20T01:08:57.064Z,2.73
2018-07-20T01:11:25.875Z,2.47
2018-07-20T01:13:54.707Z,2.03
2018-07-20T01:16:23.715Z,2.50
2018-07-20T01:18:52.588Z,2.27
2018-07-20T01:21:21.434Z,2.53
2018-07-20T01:23:50.248Z,2.23
2018-07-20T01:26:19.004Z,3.07
2018-07-20T01:28:47.834Z,3.00
2018-07-20T01:31:16.623Z,2.77
2018-07-20T01:33:45.519Z,2.70
2018-07-20T01:36:14.283Z,2.57
2018-07-20T01:38:43.083Z,3.37
2018-07-20T01:41:11.831Z,3.00
2018-07-20T01:43:40.663Z,2.33
2018-07-20T01:46:10.283Z,2.70
2018-07-20T01:48:39.159Z,2.73
2018-07-20T01:51:07.951Z,2.37
2018-07-20T01:53:36.711Z,2.43
2018-07-20T01:56:05.570Z,3.17
2018-07-20T01:58:34.407Z,3.30
2018-07-20T02:01:03.254Z,2.67
2018-07-20T02:03:31.849Z,3.03
2018-07-20T02:06:07.363Z,3.00
2018-07-20T02:08:36.251Z,2.40
2018-07-20T02:11:09.600Z,2.77
2018-07-20T02:13:38.411Z,2.57
2018-07-20T02:16:07.285Z,2.80
2018-07-20T02:18:36.135Z,3.20
2018-07-20T02:21:05.019Z,3.37
2018-07-20T02:23:33.785Z,2.70
2018-07-20T02:26:03.196Z,2.87
2018-07-20T02:28:31.976Z,3.00
2018-07-20T02:31:00.796Z,3.23
2018-07-20T02:33:29.688Z,3.23
2018-07-20T02:35:58.586Z,2.97
2018-07-20T02:38:27.408Z,2.67
2018-07-20T02:40:56.232Z,2.80
2018-07-20T02:43:25.007Z,2.70
2018-07-20T02:45:53.749Z,3.07
2018-07-20T02:48:22.326Z,3.13
2018-07-20T02:50:51.104Z,2.83
2018-07-20T02:53:19.949Z,2.97
2018-07-20T02:55:48.707Z,2.70
2018-07-20T02:58:17.728Z,3.60
2018-07-20T03:00:46.518Z,3.43
2018-07-20T03:03:15.327Z,2.97
2018-07-20T03:05:44.091Z,2.93
2018-07-20T03:08:12.915Z,3.27
2018-07-20T03:10:41.742Z,2.50
2018-07-20T03:13:10.539Z,2.53
2018-07-20T03:15:39.145Z,3.17
2018-07-20T03:18:07.999Z,2.77
2018-07-20T03:20:36.771Z,3.07
2018-07-20T03:23:05.911Z,2.80
2018-07-20T03:25:34.659Z,3.20
2018-07-20T03:28:03.462Z,2.73
2018-07-20T03:30:32.248Z,2.90
2018-07-20T03:33:01.119Z,3.37
2018-07-20T03:35:29.925Z,3.50
2018-07-20T03:37:58.781Z,3.00
2018-07-20T03:40:27.696Z,3.13
2018-07-20T03:42:56.584Z,3.23
2018-07-20T03:45:31.541Z,3.20
2018-07-20T03:48:00.388Z,2.73
2018-07-20T03:50:29.183Z,3.27
2018-07-20T03:52:57.957Z,2.90
2018-07-20T03:55:26.852Z,2.97
2018-07-20T03:57:55.667Z,3.43
2018-07-20T04:00:24.516Z,2.83
2018-07-20T04:02:53.257Z,2.90
2018-07-20T04:05:22.082Z,2.67
2018-07-20T04:07:50.856Z,2.90
2018-07-20T04:10:19.747Z,2.80
2018-07-20T04:12:48.599Z,2.73
2018-07-20T04:15:17.418Z,3.07
2018-07-20T04:17:46.255Z,2.60
2018-07-20T04:20:16.072Z,2.80
2018-07-20T04:22:44.927Z,2.90
2018-07-20T04:25:13.843Z,3.00
2018-07-20T04:27:42.620Z,2.93
2018-07-20T04:30:13.778Z,2.90
2018-07-20T04:32:42.425Z,2.73
2018-07-20T04:35:11.472Z,3.27
2018-07-20T04:37:40.613Z,3.67
2018-07-20T04:40:09.450Z,3.33
2018-07-20T04:42:38.188Z,3.13
2018-07-20T04:45:07.138Z,3.17
2018-07-20T04:47:35.916Z,3.13
2018-07-20T04:50:05.639Z,3.13
2018-07-20T04:52:34.467Z,3.10
2018-07-20T04:55:03.371Z,3.20
2018-07-20T04:57:32.180Z,3.50
2018-07-20T05:00:00.965Z,3.13
2018-07-20T05:02:29.808Z,3.10
2018-07-20T05:04:58.607Z,3.27
2018-07-20T05:07:27.455Z,3.07
2018-07-20T05:09:56.070Z,3.40
2018-07-20T05:12:24.888Z,3.00
2018-07-20T05:14:53.744Z,2.77
2018-07-20T05:17:22.535Z,2.80
2018-07-20T05:19:51.363Z,3.37
2018-07-20T05:22:20.166Z,3.30
2018-07-20T05:24:48.976Z,3.07
2018-07-20T05:27:17.840Z,3.30
2018-07-20T05:29:46.594Z,3.40
2018-07-20T05:32:15.436Z,3.00
2018-07-20T05:34:44.219Z,3.13
2018-07-20T05:37:13.084Z,3.40
2018-07-20T05:39:41.943Z,3.10
2018-07-20T05:42:10.799Z,3.20
2018-07-20T05:44:39.583Z,3.27
2018-07-20T05:47:08.403Z,2.80
2018-07-20T05:49:37.034Z,2.70
2018-07-20T05:52:05.746Z,3.00
2018-07-20T05:54:34.591Z,2.47
2018-07-20T05:57:03.374Z,2.10
2018-07-20T05:59:32.414Z,2.50
2018-07-20T06:02:01.546Z,2.60
2018-07-20T06:04:30.436Z,2.00
2018-07-20T06:06:59.042Z,2.20
2018-07-20T06:09:27.851Z,2.30
2018-07-20T06:11:56.652Z,2.07
2018-07-20T06:14:25.464Z,2.07
2018-07-20T06:16:54.398Z,2.07
2018-07-20T06:19:23.253Z,2.20
2018-07-20T06:21:52.044Z,1.93
2018-07-20T06:24:20.903Z,2.00
2018-07-20T06:26:49.685Z,1.90
2018-07-20T06:29:18.394Z,1.90
2018-07-20T06:31:47.307Z,1.83
2018-07-20T06:34:16.120Z,1.90
2018-07-20T06:36:44.710Z,1.70
2018-07-20T06:39:13.373Z,1.90
2018-07-20T06:41:42.443Z,2.10
2018-07-20T06:44:11.331Z,2.33
2018-07-20T06:46:40.127Z,1.80
2018-07-20T06:49:08.949Z,1.73
2018-07-20T06:51:37.815Z,1.70
2018-07-20T06:54:06.686Z,2.33
2018-07-20T06:56:35.539Z,1.77
2018-07-20T06:59:04.475Z,2.13
2018-07-20T07:01:33.627Z,1.80
2018-07-20T07:04:02.473Z,2.00
2018-07-20T07:06:31.367Z,1.77
2018-07-20T07:09:00.160Z,1.50
2018-07-20T07:11:29.055Z,1.40
2018-07-20T07:13:57.839Z,1.20
2018-07-20T07:16:26.515Z,1.47
2018-07-20T07:18:55.423Z,1.50
2018-07-20T07:21:24.307Z,1.30
2018-07-20T07:23:53.062Z,1.33
2018-07-20T07:26:21.867Z,1.30
2018-07-20T07:28:50.741Z,1.37
2018-07-20T07:31:19.672Z,1.50
2018-07-20T07:33:48.448Z,1.13
2018-07-20T07:36:17.324Z,1.33
2018-07-20T07:38:46.135Z,1.00
2018-07-20T07:41:14.917Z,1.53
2018-07-20T07:43:43.778Z,1.53
2018-07-20T07:46:12.565Z,1.20
2018-07-20T07:48:41.392Z,1.17
2018-07-20T07:51:10.164Z,1.43
2018-07-20T07:53:38.976Z,1.10
2018-07-20T07:56:07.713Z,0.90
2018-07-20T07:58:36.634Z,0.93
2018-07-20T08:01:05.491Z,1.10
2018-07-20T08:03:34.434Z,1.20
2018-07-20T08:06:03.179Z,1.20
2018-07-20T08:08:32.072Z,0.77
2018-07-20T08:11:00.888Z,1.10
2018-07-20T08:13:29.715Z,0.97
2018-07-20T08:15:58.512Z,0.90
2018-07-20T08:18:27.406Z,1.03
2018-07-20T08:20:56.404Z,0.80
2018-07-20T08:23:25.242Z,1.00
2018-07-20T08:25:54.015Z,1.03
2018-07-20T08:28:22.848Z,0.83
2018-07-20T08:30:51.620Z,1.17
2018-07-20T08:33:20.482Z,0.80
2018-07-20T08:35:49.249Z,0.90
2018-07-20T08:38:18.058Z,0.90
2018-07-20T08:40:46.919Z,0.80
2018-07-20T08:43:15.700Z,0.63
2018-07-20T08:45:50.555Z,1.17
2018-07-20T08:48:19.324Z,0.90
2018-07-20T08:50:48.153Z,0.70
2018-07-20T08:53:16.973Z,0.77
2018-07-20T08:55:45.677Z,0.83
2018-07-20T08:58:14.452Z,0.90
2018-07-20T09:00:43.315Z,0.90
2018-07-20T09:03:12.069Z,1.00
2018-07-20T09:05:40.939Z,1.10
2018-07-20T09:08:09.790Z,0.70
2018-07-20T09:10:38.445Z,0.73
2018-07-20T09:13:07.261Z,0.83
2018-07-20T09:15:36.205Z,0.80
2018-07-20T09:18:05.027Z,0.80
2018-07-20T09:20:34.014Z,0.73
2018-07-20T09:23:03.027Z,0.70
2018-07-20T09:25:31.692Z,1.00
2018-07-20T09:28:00.558Z,0.80
2018-07-20T09:30:29.396Z,0.90
2018-07-20T09:32:58.302Z,0.73
2018-07-20T09:35:27.127Z,0.70
2018-07-20T09:37:56.339Z,0.90
2018-07-20T09:40:25.245Z,0.53
2018-07-20T09:42:54.156Z,1.00
2018-07-20T09:45:28.980Z,1.00
2018-07-20T09:47:57.808Z,0.87
2018-07-20T09:50:26.571Z,0.83
2018-07-20T09:52:55.383Z,0.57
2018-07-20T09:55:24.283Z,0.90
2018-07-20T09:57:53.098Z,0.70
2018-07-20T10:00:27.507Z,0.90
2018-07-20T10:02:56.476Z,0.87
2018-07-20T10:05:25.378Z,0.93
2018-07-20T10:07:54.248Z,0.97
2018-07-20T10:10:22.881Z,0.70
2018-07-20T10:12:51.715Z,0.80
2018-07-20T10:15:20.520Z,0.90
2018-07-20T10:17:49.439Z,0.90
2018-07-20T10:20:18.279Z,0.77
2018-07-20T10:22:47.167Z,1.10
2018-07-20T10:25:15.917Z,0.77
2018-07-20T10:30:13.603Z,0.73
2018-07-20T10:32:42.412Z,0.90
2018-07-20T10:35:11.196Z,0.90
2018-07-20T10:37:40.018Z,0.73
2018-07-20T10:40:08.852Z,1.00
2018-07-20T10:42:37.705Z,0.90
2018-07-20T10:45:06.915Z,0.90
2018-07-20T10:47:35.726Z,0.80
2018-07-20T10:50:05.224Z,0.90
2018-07-20T10:52:34.065Z,0.87
2018-07-20T10:55:02.981Z,0.93
2018-07-20T10:57:31.759Z,1.10
2018-07-20T11:00:00.631Z,0.90
2018-07-20T11:02:29.479Z,0.97
2018-07-20T11:04:58.307Z,1.10
2018-07-20T11:07:27.149Z,1.10
2018-07-20T11:09:56.039Z,0.90
2018-07-20T11:12:24.685Z,1.50
2018-07-20T11:14:53.502Z,1.33
2018-07-20T11:17:22.274Z,1.10
2018-07-20T11:19:51.252Z,1.47
2018-07-20T11:22:20.069Z,1.30
2018-07-20T11:24:48.918Z,1.43
2018-07-20T11:27:17.708Z,1.30
2018-07-20T11:29:46.560Z,1.43
2018-07-20T11:32:15.741Z,1.30
2018-07-20T11:34:44.602Z,1.57
2018-07-20T11:37:13.459Z,1.30
2018-07-20T11:39:42.299Z,1.80
2018-07-20T11:42:11.200Z,1.57
2018-07-20T11:44:40.038Z,1.63
2018-07-20T11:47:09.254Z,1.90
2018-07-20T11:49:38.069Z,2.10
2018-07-20T11:52:06.886Z,1.77
2018-07-20T11:54:35.489Z,1.60
2018-07-20T11:57:04.357Z,1.70
2018-07-20T11:59:33.531Z,1.63
2018-07-20T12:02:02.350Z,2.00
2018-07-20T12:04:31.010Z,1.90
2018-07-20T12:06:59.874Z,2.20
2018-07-20T12:09:29.103Z,2.10
2018-07-20T12:11:57.939Z,2.00
2018-07-20T12:14:26.724Z,2.37
2018-07-20T12:16:55.616Z,1.97
2018-07-20T12:19:24.476Z,2.03
2018-07-20T12:21:53.740Z,1.47
2018-07-20T12:24:22.494Z,2.00
2018-07-20T12:26:51.121Z,2.20
2018-07-20T12:29:19.903Z,1.97
2018-07-20T12:31:48.781Z,1.87
2018-07-20T12:34:17.485Z,2.17
2018-07-20T12:36:46.327Z,1.77
2018-07-20T12:39:15.177Z,1.83
2018-07-20T12:41:43.996Z,1.90
2018-07-20T12:44:12.815Z,1.83
2018-07-20T12:46:41.708Z,2.50
2018-07-20T12:49:10.365Z,2.27
2018-07-20T12:51:39.130Z,1.80
2018-07-20T12:54:07.950Z,2.03
2018-07-20T12:56:36.788Z,2.03
2018-07-20T12:59:05.752Z,2.07
2018-07-20T13:01:34.529Z,2.13
2018-07-20T13:04:03.414Z,1.83
2018-07-20T13:06:32.198Z,1.73
2018-07-20T13:09:00.989Z,1.93
2018-07-20T13:11:30.237Z,2.00
2018-07-20T13:13:59.070Z,1.80
2018-07-20T13:16:27.846Z,2.10
2018-07-20T13:18:57.583Z,1.77
2018-07-20T13:21:26.342Z,4.50
2018-07-20T13:23:55.463Z,2.20
2018-07-20T13:26:24.503Z,2.00
2018-07-20T13:28:53.327Z,1.80
2018-07-20T13:31:22.101Z,1.67
2018-07-20T13:33:50.920Z,1.87
2018-07-20T13:36:19.823Z,1.77
2018-07-20T13:38:48.563Z,2.10
2018-07-20T13:41:17.411Z,2.20
2018-07-20T13:43:46.196Z,1.87
2018-07-20T13:46:15.063Z,1.93
2018-07-20T13:48:43.938Z,1.90
2018-07-20T13:51:12.784Z,2.03
2018-07-20T13:53:41.394Z,2.20
2018-07-20T13:56:10.212Z,2.20
2018-07-20T13:58:39.016Z,2.10
2018-07-20T14:01:07.905Z,2.03
2018-07-20T14:03:36.702Z,1.90
2018-07-20T14:06:06.188Z,2.20
2018-07-20T14:08:35.024Z,2.10
2018-07-20T14:11:03.882Z,1.90
2018-07-20T14:13:32.747Z,1.93
2018-07-20T14:16:01.623Z,2.13
2018-07-20T14:18:30.404Z,2.23
2018-07-20T14:20:59.378Z,2.47
2018-07-20T14:23:28.233Z,2.07
2018-07-20T14:25:57.132Z,2.33
2018-07-20T14:28:25.908Z,2.60
2018-07-20T14:30:54.830Z,2.03
2018-07-20T14:33:23.816Z,1.93
2018-07-20T14:35:52.610Z,2.20
2018-07-20T14:38:21.527Z,2.30
2018-07-20T14:40:50.601Z,2.47
2018-07-20T14:43:19.446Z,1.90
2018-07-20T14:45:51.211Z,2.10
2018-07-20T14:48:19.814Z,1.77
2018-07-20T14:50:48.691Z,2.23
2018-07-20T14:53:17.528Z,2.53
2018-07-20T14:55:46.328Z,2.17
2018-07-20T14:58:15.326Z,2.30
2018-07-20T15:00:44.148Z,2.33
2018-07-20T15:03:13.034Z,2.30
2018-07-20T15:05:41.808Z,2.10
2018-07-20T15:08:10.591Z,2.73
2018-07-20T15:10:39.299Z,2.50
2018-07-20T15:13:08.100Z,2.40
2018-07-20T15:15:36.951Z,2.60
2018-07-20T15:18:05.962Z,2.70
2018-07-20T15:20:34.677Z,2.80
2018-07-20T15:23:03.491Z,2.70
2018-07-20T15:25:32.250Z,2.50
2018-07-20T15:28:01.134Z,2.43
2018-07-20T15:30:29.920Z,2.23
2018-07-20T15:32:58.671Z,2.10
2018-07-20T15:35:27.462Z,2.47
2018-07-20T15:37:56.258Z,2.30
2018-07-20T15:40:25.267Z,2.23
2018-07-20T15:42:54.044Z,2.57
2018-07-20T15:45:29.052Z,2.73
2018-07-20T15:47:57.844Z,2.70
2018-07-20T15:50:26.770Z,2.43
2018-07-20T15:53:36.265Z,2.50
2018-07-20T15:55:24.253Z,2.37
2018-07-20T15:57:53.144Z,2.50
2018-07-20T16:00:21.789Z,2.83
2018-07-20T16:02:50.612Z,2.47
2018-07-20T16:05:19.257Z,2.60
2018-07-20T16:07:48.035Z,2.10
2018-07-20T16:10:16.838Z,3.17
2018-07-20T16:12:45.605Z,2.60
2018-07-20T16:15:14.579Z,2.50
2018-07-20T16:17:43.358Z,2.80
2018-07-20T16:20:12.566Z,2.60
2018-07-20T16:22:41.361Z,2.53
2018-07-20T16:25:10.215Z,2.20
2018-07-20T16:27:39.083Z,2.57
2018-07-20T16:30:07.957Z,2.70
2018-07-20T16:32:36.995Z,2.63
2018-07-20T16:35:05.970Z,2.37
2018-07-20T16:37:34.861Z,3.00
2018-07-20T16:40:04.019Z,2.90
2018-07-20T16:42:32.806Z,2.37
2018-07-20T16:45:01.584Z,2.73
2018-07-20T16:47:30.278Z,2.70
2018-07-20T16:49:59.050Z,2.80
2018-07-20T16:52:28.028Z,2.60
2018-07-20T16:54:56.846Z,2.60
2018-07-20T16:57:25.722Z,3.00
2018-07-20T16:59:54.490Z,2.70
2018-07-20T17:02:23.349Z,3.53
2018-07-20T17:04:52.273Z,2.80
2018-07-20T17:07:21.092Z,2.53
2018-07-20T17:09:49.702Z,2.90
2018-07-20T17:12:18.550Z,2.90
2018-07-20T17:14:47.327Z,2.73
2018-07-20T17:17:16.251Z,2.70
2018-07-20T17:19:44.927Z,2.60
2018-07-20T17:22:13.847Z,2.70
2018-07-20T17:24:42.663Z,2.40
2018-07-20T17:27:11.552Z,2.90
2018-07-20T17:29:40.978Z,2.90
2018-07-20T17:32:09.952Z,2.73
2018-07-20T17:34:39.043Z,2.70
2018-07-20T17:37:07.900Z,3.00
2018-07-20T17:39:36.553Z,3.00
2018-07-20T17:42:06.082Z,3.43
2018-07-20T17:44:34.951Z,3.10
2018-07-20T17:47:03.787Z,3.40
2018-07-20T17:49:32.583Z,2.60
2018-07-20T17:52:01.596Z,2.73
2018-07-20T17:54:30.779Z,2.63
2018-07-20T17:56:59.764Z,2.80
2018-07-20T17:59:28.650Z,2.70
2018-07-20T18:01:57.422Z,2.43
2018-07-20T18:04:26.883Z,2.50
2018-07-20T18:06:55.755Z,2.73
2018-07-20T18:09:24.812Z,2.30
2018-07-20T18:11:53.672Z,2.17
2018-07-20T18:14:22.916Z,2.50
2018-07-20T18:16:51.983Z,2.77
2018-07-20T18:19:20.920Z,2.43
2018-07-20T18:21:49.577Z,2.43
2018-07-20T18:24:18.817Z,2.43
2018-07-20T18:26:47.687Z,2.43
2018-07-20T18:29:16.480Z,3.10
2018-07-20T18:31:45.408Z,2.33
2018-07-20T18:34:14.221Z,3.07
2018-07-20T18:36:43.127Z,2.43
2018-07-20T18:39:12.532Z,2.30
2018-07-20T18:41:41.700Z,2.47
2018-07-20T18:44:10.784Z,2.50
2018-07-20T18:46:39.662Z,2.67
2018-07-20T18:49:08.719Z,2.23
2018-07-20T18:51:37.567Z,2.93
2018-07-20T18:54:06.496Z,2.30
2018-07-20T18:56:36.151Z,3.40
2018-07-20T18:59:05.030Z,2.57
2018-07-20T19:01:33.665Z,2.60
2018-07-20T19:04:02.588Z,3.00
2018-07-20T19:06:31.419Z,2.87
2018-07-20T19:09:00.281Z,2.97
2018-07-20T19:11:29.260Z,2.90
2018-07-20T19:13:58.021Z,2.90
2018-07-20T19:16:26.952Z,2.83
2018-07-20T19:18:56.744Z,2.50
2018-07-20T19:21:25.735Z,2.30
2018-07-20T19:23:55.778Z,2.60
2018-07-20T19:26:25.227Z,2.50
2018-07-20T19:28:54.028Z,2.50
2018-07-20T19:31:22.818Z,2.33
2018-07-20T19:33:51.703Z,2.73
2018-07-20T19:36:20.875Z,2.57
2018-07-20T19:38:49.923Z,3.00
2018-07-20T19:41:18.724Z,2.70
2018-07-20T19:43:47.563Z,2.50
2018-07-20T19:46:17.133Z,2.80
2018-07-20T19:48:45.948Z,2.90
2018-07-20T19:51:14.704Z,2.50
2018-07-20T19:53:43.867Z,2.93
2018-07-20T19:56:13.296Z,3.37
2018-07-20T19:58:42.675Z,2.63
2018-07-20T20:01:12.164Z,2.57
2018-07-20T20:03:41.022Z,3.20
2018-07-20T20:06:09.782Z,2.97
2018-07-20T20:08:38.919Z,2.60
2018-07-20T20:11:08.448Z,2.63
2018-07-20T20:13:37.507Z,3.10
2018-07-20T20:16:06.331Z,2.83
2018-07-20T20:18:35.219Z,3.20
2018-07-20T20:21:04.066Z,2.57
2018-07-20T20:23:32.903Z,2.70
2018-07-20T20:26:02.567Z,2.97
2018-07-20T20:28:31.340Z,2.50
2018-07-20T20:31:00.165Z,2.60
2018-07-20T20:33:28.963Z,2.47
2018-07-20T20:35:58.074Z,2.80
2018-07-20T20:38:27.395Z,2.40
2018-07-20T20:40:56.235Z,3.40
2018-07-20T20:43:25.424Z,2.37
2018-07-20T20:45:54.263Z,3.47
2018-07-20T20:48:23.121Z,2.80
2018-07-20T20:50:51.946Z,2.77
2018-07-20T20:53:20.772Z,3.00
2018-07-20T20:55:49.652Z,2.97
2018-07-20T20:58:18.414Z,3.10
2018-07-20T21:00:47.324Z,2.40
2018-07-20T21:03:16.178Z,3.20
2018-07-20T21:05:44.980Z,2.77
2018-07-20T21:08:13.587Z,3.23
2018-07-20T21:10:42.398Z,3.40
2018-07-20T21:13:11.043Z,2.83
2018-07-20T21:15:39.860Z,2.93
2018-07-20T21:18:08.723Z,2.57
2018-07-20T21:20:37.620Z,3.03
2018-07-20T21:23:06.409Z,3.40
2018-07-20T21:25:35.344Z,3.27
2018-07-20T21:28:04.135Z,3.47
2018-07-20T21:30:32.898Z,3.07
2018-07-20T21:33:01.760Z,3.40
2018-07-20T21:35:30.368Z,3.30
2018-07-20T21:37:59.280Z,3.20
2018-07-20T21:40:28.022Z,3.03
2018-07-20T21:42:56.828Z,3.30
2018-07-20T21:45:31.696Z,2.83
2018-07-20T21:48:00.634Z,3.00
2018-07-20T21:50:29.243Z,3.20
2018-07-20T21:52:58.064Z,3.07
2018-07-20T21:55:26.903Z,3.70
2018-07-20T21:57:55.719Z,3.30
2018-07-20T22:00:24.629Z,3.23
2018-07-20T22:02:53.480Z,3.03
2018-07-20T22:05:22.057Z,3.10
2018-07-20T22:07:50.868Z,2.90
2018-07-20T22:10:19.671Z,3.30
2018-07-20T22:12:48.839Z,2.77
2018-07-20T22:15:17.595Z,3.70
2018-07-20T22:17:46.427Z,3.53
2018-07-20T22:20:15.234Z,3.53
2018-07-20T22:22:44.041Z,3.47
2018-07-20T22:25:12.944Z,3.53
2018-07-20T22:27:41.709Z,3.47
2018-07-20T22:30:10.599Z,3.50
2018-07-20T22:32:39.380Z,3.83
2018-07-20T22:35:08.684Z,3.50
2018-07-20T22:37:37.530Z,3.67
2018-07-20T22:40:06.876Z,3.50
2018-07-20T22:42:35.722Z,4.07
2018-07-20T22:45:04.649Z,3.93
2018-07-20T22:47:33.235Z,3.60
2018-07-20T22:50:02.195Z,3.40
2018-07-20T22:52:30.948Z,4.20
2018-07-20T22:54:59.731Z,3.90
2018-07-20T22:57:28.606Z,4.00
2018-07-20T22:59:57.225Z,3.37
2018-07-20T23:02:26.192Z,3.50
2018-07-20T23:04:54.987Z,4.00
2018-07-20T23:07:23.813Z,3.13
2018-07-20T23:09:52.656Z,3.37
2018-07-20T23:12:21.282Z,3.67
2018-07-20T23:14:50.021Z,3.10
2018-07-20T23:17:18.932Z,3.33
2018-07-20T23:19:47.728Z,2.83
2018-07-20T23:22:16.570Z,3.47
2018-07-20T23:24:45.344Z,3.37
2018-07-20T23:27:14.321Z,3.50
2018-07-20T23:29:43.102Z,3.27
2018-07-20T23:32:11.999Z,3.20
2018-07-20T23:34:40.748Z,3.33
2018-07-20T23:37:09.570Z,3.30
2018-07-20T23:39:38.395Z,3.40
2018-07-20T23:42:07.207Z,2.90
2018-07-20T23:44:35.990Z,2.93
2018-07-20T23:47:04.972Z,3.00
2018-07-20T23:49:33.754Z,3.47
2018-07-20T23:52:02.637Z,3.43
2018-07-20T23:54:31.387Z,3.27
2018-07-20T23:57:00.222Z,2.87
2018-07-20T23:59:28.978Z,3.27
